.
WxDataArchive / Data Records for 2015-07-16
2015-07-15 July 2015 2015-07-17

Data Records for Thursday, 16 July 2015

Time	Temp	Chill	HIndex	Humid	Dewpt	 Wind 	HiWind	WindDir	Rain 	Barom
-----	----	-----	------	-----	-----	------	------	-------	-----	-----
00:00	63.4	63.4	63.4	75	55.3	0	0	---	0.00	29.996 
00:05	63.1	63.1	63.1	76	55.4	0	0	---	0.00	29.996 
00:10	62.7	62.7	62.7	77	55.4	0	0	---	0.00	29.996 
00:15	62.4	62.4	62.4	77	55.1	0	0	---	0.00	29.994 
00:20	62.3	62.3	62.3	79	55.7	0	0	---	0.00	29.994 
00:25	62.1	62.1	62.1	79	55.5	0	0	---	0.00	29.994 
00:30	61.8	61.8	61.8	79	55.2	0	0	---	0.00	29.993 
00:35	61.8	61.8	61.8	80	55.6	0	0	---	0.00	29.993 
00:40	61.6	61.6	61.6	80	55.4	0	0	---	0.00	29.993 
00:45	61.3	61.3	61.3	81	55.4	0	0	---	0.00	29.992 
00:50	61.2	61.2	61.2	81	55.3	0	0	---	0.00	29.992 
00:55	61.2	61.2	61.2	81	55.3	0	0	---	0.00	29.992 
01:00	60.9	60.9	60.9	82	55.4	0	0	---	0.00	30.005 
01:05	60.7	60.7	60.7	82	55.2	0	0	---	0.00	30.005 
01:10	60.5	60.5	60.5	83	55.3	0	0	---	0.00	30.005 
01:15	60.4	60.4	60.4	83	55.2	0	0	---	0.00	30.007 
01:20	60.1	60.1	60.1	84	55.2	0	0	---	0.00	30.007 
01:25	59.9	59.9	59.9	84	55.0	0	0	---	0.00	30.007 
01:30	59.6	59.6	59.6	84	54.8	0	0	---	0.00	30.004 
01:35	59.6	59.6	59.6	85	55.1	0	0	---	0.00	30.004 
01:40	59.5	59.5	59.5	85	55.0	0	0	---	0.00	30.004 
01:45	59.3	59.3	59.3	85	54.8	0	0	---	0.00	29.998 
01:50	59.2	59.2	59.2	85	54.7	0	0	---	0.00	29.998 
01:55	58.9	58.9	58.9	86	54.7	0	0	---	0.00	29.998 
02:00	58.9	58.9	58.9	86	54.7	0	0	---	0.00	30.003 
02:05	58.7	58.7	58.7	87	54.8	0	0	---	0.00	30.003 
02:10	58.7	58.7	58.7	87	54.8	0	0	---	0.00	30.003 
02:15	58.6	58.6	58.6	87	54.7	0	0	---	0.00	30.008 
02:20	58.6	58.6	58.6	88	55.1	0	0	---	0.00	30.008 
02:25	58.4	58.4	58.4	88	54.9	0	0	---	0.00	30.008 
02:30	58.4	58.4	58.4	88	54.9	0	0	---	0.00	30.006 
02:35	58.3	58.3	58.3	88	54.8	0	0	---	0.00	30.006 
02:40	58.1	58.1	58.1	88	54.6	0	0	---	0.00	30.006 
02:45	58.1	58.1	58.1	89	54.9	0	0	---	0.00	30.005 
02:50	58.0	58.0	58.0	89	54.8	0	0	---	0.00	30.005 
02:55	57.8	57.8	57.8	89	54.6	0	0	---	0.00	30.005 
03:00	57.6	57.6	57.6	90	54.7	0	0	---	0.00	30.006 
03:05	57.5	57.5	57.5	90	54.6	0	0	---	0.00	30.006 
03:10	57.3	57.3	57.3	90	54.4	0	0	---	0.00	30.006 
03:15	57.2	57.2	57.2	90	54.3	0	0	---	0.00	30.008 
03:20	57.2	57.2	57.2	90	54.3	0	0	---	0.00	30.008 
03:25	57.0	57.0	57.0	90	54.1	0	0	---	0.00	30.008 
03:30	56.9	56.9	56.9	90	54.0	0	0	---	0.00	30.018 
03:35	56.7	56.7	56.7	90	53.8	0	0	---	0.00	30.018 
03:40	56.6	56.6	56.6	91	54.0	0	0	---	0.00	30.018 
03:45	56.5	56.5	56.5	91	53.9	0	0	---	0.00	30.009 
03:50	56.3	56.3	56.3	91	53.7	0	0	---	0.00	30.009 
03:55	56.3	56.3	56.3	91	53.7	0	0	---	0.00	30.009 
04:00	56.2	56.2	56.2	91	53.6	0	0	---	0.00	30.010 
04:05	56.2	56.2	56.2	91	53.6	0	0	---	0.00	30.010 
04:10	56.0	56.0	56.0	91	53.4	0	0	---	0.00	30.010 
04:15	56.0	56.0	56.0	91	53.4	0	0	---	0.00	30.021 
04:20	56.0	56.0	56.0	91	53.4	0	0	---	0.00	30.021 
04:25	55.9	55.9	55.9	91	53.3	0	0	---	0.00	30.021 
04:30	55.9	55.9	55.9	91	53.3	0	0	---	0.00	30.023 
04:35	55.7	55.7	55.7	92	53.4	0	0	---	0.00	30.023 
04:40	55.7	55.7	55.7	92	53.4	0	0	---	0.00	30.023 
04:45	55.7	55.7	55.7	92	53.4	0	0	---	0.00	30.023 
04:50	55.7	55.7	55.7	92	53.4	0	0	---	0.00	30.023 
04:55	55.7	55.7	55.7	92	53.4	0	0	---	0.00	30.023 
05:00	55.7	55.7	55.7	92	53.4	0	0	---	0.00	30.022 
05:05	55.7	55.7	55.7	92	53.4	0	0	---	0.00	30.022 
05:10	55.9	55.9	55.9	92	53.6	0	0	---	0.00	30.022 
05:15	55.9	55.9	55.9	92	53.6	0	0	---	0.00	30.026 
05:20	55.9	55.9	55.9	92	53.6	0	0	---	0.00	30.026 
05:25	55.9	55.9	55.9	92	53.6	0	0	---	0.00	30.026 
05:30	55.9	55.9	55.9	92	53.6	0	0	---	0.00	30.039 
05:35	55.9	55.9	55.9	92	53.6	0	0	---	0.00	30.039 
05:40	55.7	55.7	55.7	92	53.4	0	0	---	0.00	30.039 
05:45	55.7	55.7	55.7	93	53.7	0	0	---	0.00	30.031 
05:50	55.7	55.7	55.7	93	53.7	0	0	---	0.00	30.031 
05:55	55.7	55.7	55.7	93	53.7	0	0	---	0.00	30.031 
06:00	55.7	55.7	55.7	93	53.7	0	0	---	0.00	30.027 
06:05	55.9	55.9	55.9	93	53.9	0	0	---	0.00	30.027 
06:10	55.9	55.9	55.9	93	53.9	0	0	---	0.00	30.027 
06:15	55.7	55.7	55.7	93	53.7	0	0	---	0.00	30.029 
06:20	55.7	55.7	55.7	93	53.7	0	0	---	0.00	30.029 
06:25	55.7	55.7	55.7	93	53.7	0	0	---	0.00	30.029 
06:30	55.7	55.7	55.7	93	53.7	0	0	---	0.00	30.034 
06:35	55.9	55.9	55.9	93	53.9	0	0	---	0.00	30.034 
06:40	55.9	55.9	55.9	93	53.9	0	0	---	0.00	30.034 
06:45	55.9	55.9	55.9	93	53.9	0	0	---	0.00	30.039 
06:50	56.0	56.0	56.0	93	54.0	0	0	---	0.00	30.039 
06:55	56.0	56.0	56.0	93	54.0	0	0	---	0.00	30.039 
07:00	56.0	56.0	56.0	94	54.3	0	0	---	0.00	30.040 
07:05	56.2	56.2	56.2	94	54.5	0	0	---	0.00	30.040 
07:10	56.3	56.3	56.3	94	54.6	0	0	---	0.00	30.040 
07:15	56.5	56.5	56.5	94	54.8	0	0	---	0.00	30.042 
07:20	56.6	56.6	56.6	94	54.9	0	0	---	0.00	30.042 
07:25	56.7	56.7	56.7	94	55.0	0	0	---	0.00	30.042 
07:30	57.0	57.0	57.0	94	55.3	0	0	---	0.00	30.044 
07:35	57.3	57.3	57.3	94	55.6	0	1	68	0.00	30.044 
07:40	57.8	57.8	57.8	94	56.1	0	2	68	0.00	30.044 
07:45	58.1	58.1	58.1	93	56.1	0	0	---	0.00	30.037 
07:50	58.3	58.3	58.3	93	56.3	0	1	68	0.00	30.037 
07:55	58.3	58.3	58.3	92	56.0	0	0	---	0.00	30.037 
08:00	58.7	58.7	58.7	92	56.4	0	2	68	0.00	30.040 
08:05	59.5	59.5	59.5	91	56.9	0	1	68	0.00	30.040 
08:10	59.8	59.8	59.8	89	56.5	1	3	68	0.00	30.040 
08:15	59.9	59.9	59.9	89	56.6	0	2	68	0.00	30.041 
08:20	60.4	60.4	60.4	88	56.8	0	2	68	0.00	30.041 
08:25	60.9	60.9	60.9	87	57.0	1	3	68	0.00	30.041 
08:30	61.2	61.2	61.2	86	57.0	0	2	68	0.00	30.041 
08:35	61.8	61.8	61.8	86	57.6	0	3	68	0.00	30.041 
08:40	62.3	62.3	62.3	83	57.1	1	3	68	0.00	30.041 
08:45	62.9	62.9	62.9	81	57.0	2	5	68	0.00	30.038 
08:50	63.2	63.2	63.2	81	57.3	1	3	68	0.00	30.038 
08:55	63.2	63.2	63.2	81	57.3	2	5	68	0.00	30.038 
09:00	63.4	63.4	63.4	81	57.5	1	5	68	0.00	30.033 
09:05	63.7	63.7	63.7	80	57.4	1	4	68	0.00	30.033 
09:10	63.9	63.9	63.9	80	57.6	0	3	68	0.00	30.033 
09:15	64.0	64.0	64.0	80	57.7	1	3	68	0.00	30.045 
09:20	64.3	64.3	64.3	79	57.6	1	3	68	0.00	30.045 
09:25	64.3	64.3	64.3	78	57.3	1	5	68	0.00	30.045 
09:30	64.5	64.5	64.5	78	57.5	0	2	90	0.00	30.046 
09:35	64.7	64.7	64.7	78	57.7	1	4	90	0.00	30.046 
09:40	64.5	64.5	64.5	79	57.8	1	4	90	0.00	30.046 
09:45	64.2	64.2	64.2	79	57.5	1	4	90	0.00	30.048 
09:50	64.0	64.0	64.0	79	57.4	1	4	90	0.00	30.048 
09:55	64.0	64.0	64.0	79	57.4	1	4	90	0.00	30.048 
10:00	64.2	64.2	64.2	79	57.5	1	4	90	0.00	30.052 
10:05	64.3	64.3	64.3	79	57.6	1	3	90	0.00	30.052 
10:10	64.5	64.5	64.5	78	57.5	1	4	90	0.00	30.052 
10:15	64.8	64.8	64.8	77	57.4	0	2	90	0.00	30.050 
10:20	65.2	65.2	65.2	77	57.8	2	4	90	0.00	30.050 
10:25	65.5	65.5	65.5	77	58.1	1	4	90	0.00	30.050 
10:30	65.6	65.6	65.6	75	57.5	1	3	90	0.00	30.041 
10:35	65.8	65.8	65.8	74	57.3	1	4	90	0.00	30.041 
10:40	66.0	66.0	66.0	73	57.1	1	4	90	0.00	30.041 
10:45	66.3	66.3	66.3	72	57.0	2	5	90	0.00	30.045 
10:50	66.6	66.6	66.6	70	56.5	2	7	90	0.00	30.045 
10:55	66.6	66.6	66.6	72	57.3	1	4	90	0.00	30.045 
11:00	66.9	66.9	66.9	73	58.0	0	3	90	0.00	30.043 
11:05	67.1	67.1	67.1	70	57.0	0	2	158	0.00	30.043 
11:10	67.4	67.4	67.4	70	57.3	0	2	158	0.00	30.043 
11:15	67.4	67.4	67.4	68	56.5	1	4	90	0.00	30.044 
11:20	67.8	67.8	67.8	69	57.2	0	2	90	0.00	30.044 
11:25	68.3	68.3	68.3	66	56.5	0	3	90	0.00	30.044 
11:30	68.6	68.6	68.6	65	56.4	0	1	90	0.00	30.044 
11:35	68.9	68.9	68.9	64	56.2	0	2	90	0.00	30.044 
11:40	68.9	68.9	68.9	63	55.8	0	2	90	0.00	30.044 
11:45	68.9	68.9	68.9	63	55.8	0	2	90	0.00	30.042 
11:50	68.8	68.8	68.8	64	56.1	1	3	90	0.00	30.042 
11:55	68.3	68.3	68.3	65	56.1	0	1	90	0.00	30.042 
12:00	68.1	68.1	68.1	65	55.9	0	2	90	0.00	30.042 
12:05	68.1	68.1	68.1	65	55.9	0	1	90	0.00	30.042 
12:10	68.1	68.1	68.1	66	56.3	0	2	90	0.00	30.042 
12:15	68.3	68.3	68.3	65	56.1	0	2	90	0.00	30.044 
12:20	68.1	68.1	68.1	66	56.3	1	4	90	0.00	30.044 
12:25	68.1	68.1	68.1	66	56.3	1	4	90	0.00	30.044 
12:30	68.1	68.1	68.1	67	56.7	0	2	90	0.00	30.043 
12:35	68.3	68.3	68.3	67	56.9	0	1	90	0.00	30.043 
12:40	68.8	68.8	68.8	67	57.4	0	1	90	0.00	30.043 
12:45	69.1	69.1	69.1	64	56.4	0	1	90	0.00	30.045 
12:50	69.3	69.3	69.3	64	56.6	0	1	90	0.00	30.045 
12:55	69.4	69.4	69.4	64	56.7	0	0	---	0.00	30.045 
13:00	69.6	69.6	69.6	64	56.9	0	1	90	0.00	30.043 
13:05	69.6	69.6	69.6	63	56.4	0	1	90	0.00	30.043 
13:10	69.8	69.8	69.8	64	57.1	0	1	90	0.00	30.043 
13:15	70.1	70.1	70.1	62	56.5	0	1	90	0.00	30.047 
13:20	70.4	70.4	70.4	62	56.7	0	1	90	0.00	30.047 
13:25	70.6	70.6	70.6	62	56.9	0	3	90	0.00	30.047 
13:30	70.8	70.8	70.8	62	57.1	0	1	90	0.00	30.043 
13:35	70.8	70.8	70.8	61	56.7	0	1	90	0.00	30.043 
13:40	71.1	71.1	71.1	62	57.4	0	1	90	0.00	30.043 
13:45	70.9	70.9	70.9	61	56.8	1	3	90	0.00	30.042 
13:50	70.9	70.9	70.9	62	57.2	0	1	90	0.00	30.042 
13:55	71.1	71.1	71.1	61	57.0	0	1	90	0.00	30.042 
14:00	71.1	71.1	71.1	61	57.0	0	1	90	0.00	30.037 
14:05	71.3	71.3	71.3	62	57.6	0	2	90	0.00	30.037 
14:10	71.1	71.1	71.1	61	57.0	0	1	90	0.00	30.037 
14:15	70.9	70.9	70.9	60	56.3	0	2	90	0.00	30.039 
14:20	71.1	71.1	71.1	62	57.4	0	1	90	0.00	30.039 
14:25	71.1	71.1	71.1	61	57.0	0	0	---	0.00	30.039 
14:30	71.3	71.3	71.3	61	57.1	0	1	90	0.00	30.031 
14:35	71.3	71.3	71.3	62	57.6	0	3	90	0.00	30.031 
14:40	71.3	71.3	71.3	62	57.6	0	1	90	0.00	30.031 
14:45	70.9	70.9	70.9	62	57.2	1	3	90	0.00	30.029 
14:50	70.9	70.9	70.9	64	58.1	0	0	---	0.00	30.029 
14:55	71.1	71.1	71.1	62	57.4	0	2	90	0.00	30.029 
15:00	70.9	70.9	70.9	62	57.2	0	3	90	0.00	30.025 
15:05	71.1	71.1	71.1	63	57.9	0	2	90	0.00	30.025 
15:10	71.1	71.1	71.1	62	57.4	0	2	90	0.00	30.025 
15:15	71.1	71.1	71.1	61	57.0	0	3	90	0.00	30.016 
15:20	70.9	70.9	70.9	62	57.2	0	4	90	0.00	30.016 
15:25	70.9	70.9	70.9	64	58.1	0	1	90	0.00	30.016 
15:30	71.1	71.1	71.1	64	58.3	0	2	90	0.00	30.006 
15:35	71.3	71.3	71.3	62	57.6	1	3	90	0.00	30.006 
15:40	71.3	71.3	71.3	64	58.5	1	4	90	0.00	30.006 
15:45	71.3	71.3	71.3	64	58.5	1	3	90	0.00	29.995 
15:50	71.3	71.3	71.3	64	58.5	1	3	90	0.00	29.995 
15:55	71.1	71.1	71.1	63	57.9	1	4	90	0.00	29.995 
16:00	71.1	71.1	71.1	63	57.9	1	4	90	0.00	29.976 
16:05	71.3	71.3	71.3	62	57.6	1	3	90	0.00	29.976 
16:10	71.3	71.3	71.3	63	58.0	1	4	90	0.00	29.976 
16:15	71.3	71.3	71.3	63	58.0	2	4	90	0.00	29.961 
16:20	71.1	71.1	71.1	62	57.4	2	9	112	0.00	29.961 
16:25	71.1	71.1	71.1	62	57.4	1	5	90	0.00	29.961 
16:30	71.1	71.1	71.1	61	57.0	1	4	90	0.00	29.953 
16:35	71.3	71.3	71.3	61	57.1	0	3	90	0.00	29.953 
16:40	71.3	71.3	71.3	61	57.1	1	5	68	0.00	29.953 
16:45	71.5	71.5	71.5	60	56.9	1	4	68	0.00	29.959 
16:50	71.8	71.8	71.8	59	56.7	1	3	68	0.00	29.959 
16:55	72.3	72.3	72.3	61	58.1	0	3	90	0.00	29.959 
17:00	72.7	72.7	72.7	60	58.0	0	2	90	0.00	29.959 
17:05	73.2	73.2	73.2	60	58.5	0	3	90	0.00	29.959 
17:10	74.0	74.0	74.0	58	58.3	0	4	90	0.00	29.959 
17:15	74.4	74.4	74.4	54	56.7	1	4	90	0.00	29.961 
17:20	74.2	74.2	74.2	54	56.5	1	5	90	0.00	29.961 
17:25	74.2	74.2	74.2	54	56.5	0	2	90	0.00	29.961 
17:30	74.4	74.4	74.4	53	56.1	1	2	90	0.00	29.959 
17:35	74.4	74.4	74.4	54	56.7	0	1	90	0.00	29.959 
17:40	74.4	74.4	74.4	54	56.7	0	2	90	0.00	29.959 
17:45	74.0	74.0	74.0	54	56.3	0	1	90	0.00	29.951 
17:50	73.9	73.9	73.9	52	55.1	0	2	90	0.00	29.951 
17:55	74.0	74.0	74.0	54	56.3	1	4	90	0.00	29.951 
18:00	74.6	74.6	74.6	54	56.8	1	3	90	0.00	29.939 
18:05	75.3	75.3	77.7	54	57.5	1	4	90	0.00	29.939 
18:10	75.6	75.6	77.9	54	57.8	1	4	90	0.00	29.939 
18:15	75.4	75.4	77.8	51	56.0	0	3	90	0.00	29.930 
18:20	75.4	75.4	77.8	53	57.1	0	2	90	0.00	29.930 
18:25	75.4	75.4	77.8	53	57.1	0	1	90	0.00	29.930 
18:30	75.4	75.4	77.8	52	56.5	1	2	90	0.00	29.920 
18:35	75.4	75.4	77.8	52	56.5	0	2	90	0.00	29.920 
18:40	75.4	75.4	77.8	51	56.0	1	2	90	0.00	29.920 
18:45	75.3	75.3	77.7	50	55.4	0	2	90	0.00	29.917 
18:50	75.3	75.3	77.7	52	56.4	0	3	90	0.00	29.917 
18:55	75.3	75.3	77.7	51	55.9	1	2	90	0.00	29.917 
19:00	75.3	75.3	77.7	52	56.4	1	5	112	0.00	29.902 
19:05	75.4	75.4	77.8	53	57.1	1	2	68	0.00	29.902 
19:10	75.4	75.4	77.8	52	56.5	1	4	112	0.00	29.902 
19:15	75.4	75.4	77.8	53	57.1	1	3	112	0.00	29.895 
19:20	75.4	75.4	77.8	54	57.6	1	4	112	0.00	29.895 
19:25	75.3	75.3	77.7	55	58.0	1	4	112	0.00	29.895 
19:30	75.3	75.3	77.7	56	58.5	0	2	112	0.00	29.894 
19:35	75.3	75.3	77.7	56	58.5	0	2	112	0.00	29.894 
19:40	75.1	75.1	77.6	55	57.8	1	2	112	0.00	29.894 
19:45	75.1	75.1	77.6	54	57.3	1	5	112	0.00	29.895 
19:50	74.9	74.9	74.9	55	57.6	0	2	90	0.00	29.895 
19:55	74.9	74.9	74.9	54	57.1	0	1	90	0.00	29.895 
20:00	74.7	74.7	74.7	53	56.4	0	3	90	0.00	29.898 
20:05	74.6	74.6	74.6	53	56.3	0	1	90	0.00	29.898 
20:10	74.4	74.4	74.4	53	56.1	0	1	90	0.00	29.898 
20:15	74.2	74.2	74.2	54	56.5	0	1	90	0.00	29.896 
20:20	74.0	74.0	74.0	54	56.3	0	1	90	0.00	29.896 
20:25	73.9	73.9	73.9	56	57.2	0	0	---	0.00	29.896 
20:30	73.5	73.5	73.5	57	57.3	0	0	---	0.00	29.895 
20:35	73.3	73.3	73.3	57	57.1	0	0	---	0.00	29.895 
20:40	73.0	73.0	73.0	58	57.3	0	0	---	0.00	29.895 
20:45	72.8	72.8	72.8	59	57.6	0	0	---	0.00	29.896 
20:50	72.7	72.7	72.7	61	58.5	0	0	---	0.00	29.896 
20:55	72.3	72.3	72.3	62	58.5	0	0	---	0.00	29.896 
21:00	72.1	72.1	72.1	62	58.3	0	0	---	0.00	29.898 
21:05	71.8	71.8	71.8	63	58.5	0	0	---	0.00	29.898 
21:10	71.5	71.5	71.5	64	58.7	0	0	---	0.00	29.898 
21:15	71.1	71.1	71.1	66	59.2	0	0	---	0.00	29.899 
21:20	70.8	70.8	70.8	67	59.3	0	0	---	0.00	29.899 
21:25	70.3	70.3	70.3	69	59.6	0	0	---	0.00	29.899 
21:30	69.8	69.8	69.8	69	59.2	0	0	---	0.00	29.901 
21:35	69.4	69.4	69.4	69	58.8	0	0	---	0.00	29.901 
21:40	69.1	69.1	69.1	69	58.5	0	0	---	0.00	29.901 
21:45	68.9	68.9	68.9	71	59.1	0	0	---	0.00	29.907 
21:50	68.6	68.6	68.6	72	59.2	0	0	---	0.00	29.907 
21:55	68.4	68.4	68.4	74	59.8	0	0	---	0.00	29.907 
22:00	68.3	68.3	68.3	74	59.7	0	0	---	0.00	29.908 
22:05	68.1	68.1	68.1	75	59.9	0	0	---	0.00	29.908 
22:10	67.8	67.8	67.8	74	59.2	0	0	---	0.00	29.908 
22:15	67.8	67.8	67.8	74	59.2	0	0	---	0.00	29.912 
22:20	67.6	67.6	67.6	75	59.4	0	0	---	0.00	29.912 
22:25	67.6	67.6	67.6	75	59.4	0	0	---	0.00	29.912 
22:30	67.6	67.6	67.6	76	59.8	0	0	---	0.00	29.912 
22:35	67.6	67.6	67.6	76	59.8	0	0	---	0.00	29.912 
22:40	67.6	67.6	67.6	77	60.1	0	0	---	0.00	29.912 
22:45	67.6	67.6	67.6	77	60.1	0	0	---	0.00	29.913 
22:50	67.6	67.6	67.6	77	60.1	0	0	---	0.00	29.913 
22:55	67.6	67.6	67.6	77	60.1	0	0	---	0.00	29.913 
23:00	67.6	67.6	67.6	77	60.1	0	0	---	0.00	29.913 
23:05	67.6	67.6	67.6	77	60.1	0	0	---	0.00	29.913 
23:10	67.6	67.6	67.6	77	60.1	0	0	---	0.00	29.913 
23:15	67.9	67.9	67.9	77	60.4	0	0	---	0.00	29.911 
23:20	68.1	68.1	68.1	77	60.6	0	0	---	0.00	29.911 
23:25	68.1	68.1	68.1	77	60.6	0	0	---	0.00	29.911 
23:30	68.3	68.3	68.3	76	60.4	0	0	---	0.00	29.911 
23:35	68.3	68.3	68.3	76	60.4	0	0	---	0.00	29.911 
23:40	68.4	68.4	68.4	76	60.5	0	0	---	0.00	29.911 
23:45	68.6	68.6	68.6	76	60.7	0	0	---	0.00	29.907 
23:50	68.8	68.8	68.8	76	60.9	0	0	---	0.00	29.907 
23:55	68.8	68.8	68.8	76	60.9	0	0	---	0.00	29.907 

CoCoRaHS
IN-AL-39
A2 Web Hosting
Creative Commons License
GoDaddy
search engine by freefind advanced

loaded 2018-11-16 10:52:29 • last modified 2010-11-18 10:43:29
Privacy PolicyDisclaimer
• wx.awcolley.com is powered by PmWiki v.2002016 •
• all content (unless otherwise noted) © 2018 A W Colley